Time;durP1;ratioP1;P1;durP2;ratioP2;P2;SDS_P1;SDS_P2;PMS_P1;PMS_P2;Temp;Humidity;BMP_temperature;BMP_pressure;BME280_temperature;BME280_humidity;BME280_pressure;Samples;Min_cycle;Max_cycle;Signal;HPM_P1;HPM_P2
2021/10/04 00:03:18;;;;;;;;;;;14.70;99.90;;;;;;8392686;28;19954;-65
2021/10/04 00:07:19;;;;;;;;;;;14.70;99.90;;;;;;8392576;28;19909;-65
2021/10/04 00:11:19;;;;;;;;;;;14.80;99.90;;;;;;8391493;28;19919;-65
2021/10/04 00:15:20;;;;;;;;;;;14.70;99.90;;;;;;8392067;28;19912;-65
2021/10/04 00:19:21;;;;;;;;;;;14.60;99.90;;;;;;8392226;28;19912;-65
2021/10/04 00:23:21;;;;;;;;;;;14.70;99.90;;;;;;8392395;28;19916;-65
2021/10/04 00:27:22;;;;;;;;;;;14.60;99.90;;;;;;8392841;28;19995;-65
2021/10/04 00:31:23;;;;;;;;;;;14.50;99.90;;;;;;8392567;28;19916;-65
2021/10/04 00:35:24;;;;;;;;;;;14.60;99.90;;;;;;8380716;28;19978;-66
2021/10/04 00:39:25;;;;;;;;;;;14.50;99.90;;;;;;8357856;28;19912;-65
2021/10/04 00:43:26;;;;;;;;;;;14.40;99.90;;;;;;8359260;28;19909;-66
2021/10/04 00:47:26;;;;;;;;;;;14.40;99.90;;;;;;8359364;28;19987;-65
2021/10/04 00:51:27;;;;;;;;;;;14.50;99.90;;;;;;8359138;28;20011;-66
2021/10/04 00:55:27;;;;;;;;;;;14.40;99.90;;;;;;8358739;28;19937;-65
2021/10/04 00:59:28;;;;;;;;;;;14.30;99.90;;;;;;8359148;28;19969;-65
2021/10/04 01:03:28;;;;;;;;;;;14.40;99.90;;;;;;8362200;28;20011;-65
2021/10/04 01:07:29;;;;;;;;;;;14.30;99.90;;;;;;8364897;28;20386;-65
2021/10/04 01:11:29;;;;;;;;;;;14.30;99.90;;;;;;8365036;28;20460;-65
2021/10/04 01:15:30;;;;;;;;;;;14.30;99.90;;;;;;8364552;28;19920;-65
2021/10/04 01:19:31;;;;;;;;;;;14.30;99.90;;;;;;8384851;28;19934;-65
2021/10/04 01:23:31;;;;;;;;;;;14.50;99.90;;;;;;8397396;28;20375;-65
2021/10/04 01:27:32;;;;;;;;;;;14.50;99.90;;;;;;8397210;28;19997;-65
2021/10/04 01:31:33;;;;;;;;;;;14.50;99.90;;;;;;8396133;28;19913;-65
2021/10/04 01:35:33;;;;;;;;;;;14.60;99.90;;;;;;8396934;28;19915;-65
2021/10/04 01:39:34;;;;;;;;;;;14.50;99.90;;;;;;8397136;28;19920;-65
2021/10/04 01:43:35;;;;;;;;;;;14.50;99.90;;;;;;8395691;28;19908;-65
2021/10/04 01:47:36;;;;;;;;;;;14.30;99.90;;;;;;8396511;28;19962;-65
2021/10/04 01:51:36;;;;;;;;;;;14.20;99.90;;;;;;8396838;28;20007;-65
2021/10/04 01:55:37;;;;;;;;;;;14.20;99.90;;;;;;8394273;28;19917;-65
2021/10/04 01:59:37;;;;;;;;;;;14.10;99.90;;;;;;8396462;28;19999;-65
2021/10/04 02:03:38;;;;;;;;;;;14.00;99.90;;;;;;8394763;28;19915;-65
2021/10/04 02:07:39;;;;;;;;;;;14.20;99.90;;;;;;8396044;28;19955;-65
2021/10/04 02:11:40;;;;;;;;;;;14.10;99.90;;;;;;8396073;28;20598;-65
2021/10/04 02:15:41;;;;;;;;;;;14.00;99.90;;;;;;8395228;28;19909;-65
2021/10/04 02:19:41;;;;;;;;;;;14.00;99.90;;;;;;8395102;28;19993;-65
2021/10/04 02:23:42;;;;;;;;;;;14.00;99.90;;;;;;8395620;28;19924;-65
2021/10/04 02:27:43;;;;;;;;;;;13.80;99.90;;;;;;8395171;28;20363;-65
2021/10/04 02:31:44;;;;;;;;;;;13.90;99.90;;;;;;8395328;28;20298;-65
2021/10/04 02:35:44;;;;;;;;;;;13.80;99.90;;;;;;8393682;28;20011;-65
2021/10/04 02:39:45;;;;;;;;;;;13.80;99.90;;;;;;8394916;28;19919;-65
2021/10/04 02:43:45;;;;;;;;;;;13.80;99.90;;;;;;8394720;28;20459;-65
2021/10/04 02:47:47;;;;;;;;;;;13.80;99.90;;;;;;8394331;28;19970;-65
2021/10/04 02:51:47;;;;;;;;;;;13.70;99.90;;;;;;8394808;28;19916;-65
2021/10/04 02:55:48;;;;;;;;;;;13.70;99.90;;;;;;8392866;28;19908;-65
2021/10/04 02:59:48;;;;;;;;;;;13.60;99.90;;;;;;8394151;28;19931;-65
2021/10/04 03:03:48;;;;;;;;;;;13.70;99.90;;;;;;8393217;28;19954;-65
2021/10/04 03:07:49;;;;;;;;;;;13.70;99.90;;;;;;8394129;28;19981;-65
2021/10/04 03:11:49;;;;;;;;;;;13.70;99.90;;;;;;8393471;28;20482;-65
2021/10/04 03:15:50;;;;;;;;;;;13.60;99.90;;;;;;8393398;28;19915;-65
2021/10/04 03:19:50;;;;;;;;;;;13.60;99.90;;;;;;8380749;28;20325;-65
2021/10/04 03:23:51;;;;;;;;;;;13.40;99.90;;;;;;8375094;28;19925;-65
2021/10/04 03:27:51;;;;;;;;;;;13.40;99.90;;;;;;8380122;28;19927;-65
2021/10/04 03:31:52;;;;;;;;;;;13.40;99.90;;;;;;8380676;28;19920;-65
2021/10/04 03:35:53;;;;;;;;;;;13.50;99.90;;;;;;8359466;28;20306;-65
2021/10/04 03:39:53;;;;;;;;;;;13.50;99.90;;;;;;8358004;28;19916;-64
2021/10/04 03:43:54;;;;;;;;;;;13.40;99.90;;;;;;8360472;28;20004;-64
2021/10/04 03:47:54;;;;;;;;;;;13.40;99.90;;;;;;8368321;28;20007;-65
2021/10/04 03:51:55;;;;;;;;;;;13.50;99.90;;;;;;8389021;28;19913;-65
2021/10/04 03:55:55;;;;;;;;;;;13.30;99.90;;;;;;8387843;28;19908;-65
2021/10/04 03:59:56;;;;;;;;;;;13.40;99.90;;;;;;8424003;28;19916;-65
2021/10/04 04:03:56;;;;;;;;;;;13.40;99.90;;;;;;8424206;28;19941;-65
2021/10/04 04:07:57;;;;;;;;;;;13.30;99.90;;;;;;8425759;28;20235;-65
2021/10/04 04:11:57;;;;;;;;;;;13.30;99.90;;;;;;8426266;28;19990;-65
2021/10/04 04:15:59;;;;;;;;;;;13.20;99.90;;;;;;8419586;28;19908;-65
2021/10/04 04:19:59;;;;;;;;;;;13.20;99.90;;;;;;8405451;28;20000;-65
2021/10/04 04:24:00;;;;;;;;;;;13.20;99.90;;;;;;8424447;28;19932;-65
2021/10/04 04:28:00;;;;;;;;;;;13.10;99.90;;;;;;8423534;28;19916;-65
2021/10/04 04:32:01;;;;;;;;;;;13.00;99.90;;;;;;8408691;28;19959;-65
2021/10/04 04:36:02;;;;;;;;;;;13.00;99.90;;;;;;8378227;28;19909;-64
2021/10/04 04:40:03;;;;;;;;;;;12.90;99.90;;;;;;8395453;28;19913;-64
2021/10/04 04:44:04;;;;;;;;;;;13.00;99.90;;;;;;8380744;28;20282;-64
2021/10/04 04:48:04;;;;;;;;;;;13.00;99.90;;;;;;8362847;28;20015;-64
2021/10/04 04:52:05;;;;;;;;;;;13.00;99.90;;;;;;8362983;28;19912;-64
2021/10/04 04:56:06;;;;;;;;;;;13.00;99.90;;;;;;8389477;28;19927;-64
2021/10/04 05:00:07;;;;;;;;;;;13.00;99.90;;;;;;8378083;28;19917;-65
2021/10/04 05:04:09;;;;;;;;;;;13.00;99.90;;;;;;8365023;28;20351;-64
2021/10/04 05:08:10;;;;;;;;;;;12.90;99.90;;;;;;8375276;28;19909;-65
2021/10/04 05:12:10;;;;;;;;;;;13.00;99.90;;;;;;8372992;28;19924;-68
2021/10/04 05:16:12;;;;;;;;;;;12.90;99.90;;;;;;8383741;28;20000;-68
2021/10/04 05:20:13;;;;;;;;;;;13.00;99.90;;;;;;8344819;28;1755179;-68
2021/10/04 05:24:13;;;;;;;;;;;13.10;99.90;;;;;;8395798;28;19962;-68
2021/10/04 05:28:14;;;;;;;;;;;13.20;99.90;;;;;;8396629;28;20408;-68
2021/10/04 05:32:14;;;;;;;;;;;13.10;99.90;;;;;;8388332;28;20394;-67
2021/10/04 05:36:15;;;;;;;;;;;13.20;99.90;;;;;;8363127;28;19963;-68
2021/10/04 05:40:15;;;;;;;;;;;13.10;99.90;;;;;;8363467;28;19909;-68
2021/10/04 05:44:16;;;;;;;;;;;12.90;99.90;;;;;;8361883;28;19908;-68
2021/10/04 05:48:16;;;;;;;;;;;13.00;99.90;;;;;;8376256;28;19916;-68
2021/10/04 05:52:17;;;;;;;;;;;12.80;99.90;;;;;;8393988;28;19981;-66
2021/10/04 05:56:17;;;;;;;;;;;12.90;99.90;;;;;;8423236;28;19964;-66
2021/10/04 06:00:18;;;;;;;;;;;12.90;99.90;;;;;;8417842;28;19916;-67
2021/10/04 06:04:18;;;;;;;;;;;12.90;99.90;;;;;;8378095;28;19913;-67
2021/10/04 06:08:18;;;;;;;;;;;12.90;99.90;;;;;;8368658;28;19912;-67
2021/10/04 06:12:24;;;;;;;;;;;12.90;99.90;;;;;;8404871;28;20003;-66
2021/10/04 06:16:24;;;;;;;;;;;13.00;99.90;;;;;;8417159;28;19993;-66
2021/10/04 06:20:25;;;;;;;;;;;13.10;99.90;;;;;;8379815;28;19916;-66
2021/10/04 06:24:26;;;;;;;;;;;12.90;99.90;;;;;;8365634;28;20016;-66
2021/10/04 06:28:26;;;;;;;;;;;12.90;99.90;;;;;;8376121;28;19920;-66
2021/10/04 06:32:26;;;;;;;;;;;12.80;99.90;;;;;;8378994;28;19939;-66
2021/10/04 06:36:27;;;;;;;;;;;12.80;99.90;;;;;;8374840;28;19920;-65
2021/10/04 06:40:27;;;;;;;;;;;12.90;99.90;;;;;;8377797;28;19970;-65
2021/10/04 06:44:28;;;;;;;;;;;12.80;99.90;;;;;;8364137;28;19908;-65
2021/10/04 06:48:28;;;;;;;;;;;12.70;99.90;;;;;;8368052;28;19913;-66
2021/10/04 06:52:29;;;;;;;;;;;12.70;99.90;;;;;;8379169;28;19912;-66
2021/10/04 06:56:31;;;;;;;;;;;12.80;99.90;;;;;;8391870;28;20306;-66
2021/10/04 07:00:31;;;;;;;;;;;13.00;99.90;;;;;;8393194;28;19915;-66
2021/10/04 07:04:31;;;;;;;;;;;12.90;99.90;;;;;;8392566;28;20022;-66
2021/10/04 07:08:32;;;;;;;;;;;12.90;99.90;;;;;;8394406;28;20003;-66
2021/10/04 07:12:32;;;;;;;;;;;12.90;99.90;;;;;;8394316;28;20014;-66
2021/10/04 07:16:33;;;;;;;;;;;12.90;99.90;;;;;;8393562;28;19958;-66
2021/10/04 07:20:33;;;;;;;;;;;12.90;99.90;;;;;;8388790;28;19916;-66
2021/10/04 07:24:34;;;;;;;;;;;12.90;99.90;;;;;;8393291;28;19924;-66
2021/10/04 07:28:34;;;;;;;;;;;12.80;99.90;;;;;;8384476;28;19916;-65
2021/10/04 07:32:35;;;;;;;;;;;12.90;99.90;;;;;;8392898;28;19944;-65
2021/10/04 07:36:35;;;;;;;;;;;12.60;99.90;;;;;;8374089;28;19919;-65
2021/10/04 07:40:37;;;;;;;;;;;12.50;99.90;;;;;;8359797;28;20295;-66
2021/10/04 07:44:37;;;;;;;;;;;12.70;99.90;;;;;;8359862;28;20138;-66
2021/10/04 07:48:38;;;;;;;;;;;12.70;99.90;;;;;;8359741;28;19912;-65
2021/10/04 07:52:38;;;;;;;;;;;12.70;99.90;;;;;;8359748;28;19975;-65
2021/10/04 07:56:39;;;;;;;;;;;12.60;99.90;;;;;;8358189;28;20387;-65
2021/10/04 08:00:40;;;;;;;;;;;12.70;99.90;;;;;;8359550;28;19909;-65
2021/10/04 08:04:40;;;;;;;;;;;12.70;99.90;;;;;;8359057;28;19913;-66
2021/10/04 08:08:41;;;;;;;;;;;12.50;99.90;;;;;;8358100;28;19916;-65
2021/10/04 08:12:41;;;;;;;;;;;12.50;99.90;;;;;;8360259;28;20387;-65
2021/10/04 08:16:43;;;;;;;;;;;12.40;99.90;;;;;;8389832;28;19954;-65
2021/10/04 08:20:43;;;;;;;;;;;12.60;99.90;;;;;;8385509;28;19916;-65
2021/10/04 08:24:44;;;;;;;;;;;12.70;99.90;;;;;;8390722;28;19915;-66
2021/10/04 08:28:44;;;;;;;;;;;12.60;99.90;;;;;;8362859;28;19949;-65
2021/10/04 08:32:47;;;;;;;;;;;12.90;99.90;;;;;;8358910;28;19919;-65
2021/10/04 08:36:47;;;;;;;;;;;12.70;99.90;;;;;;8358828;28;19909;-65
2021/10/04 08:40:47;;;;;;;;;;;12.50;99.90;;;;;;8358544;28;19920;-65
2021/10/04 08:44:48;;;;;;;;;;;12.30;99.90;;;;;;8357340;28;19963;-65
2021/10/04 08:48:49;;;;;;;;;;;12.10;99.90;;;;;;8358705;28;19919;-65
2021/10/04 08:52:50;;;;;;;;;;;12.20;99.90;;;;;;8369763;28;20011;-65
2021/10/04 08:56:51;;;;;;;;;;;12.20;99.90;;;;;;8391796;28;19909;-65
2021/10/04 09:00:51;;;;;;;;;;;12.30;99.90;;;;;;8363201;28;19909;-65
2021/10/04 09:05:05;;;;;;;;;;;12.50;99.90;;;;;;8357264;28;20451;-65
2021/10/04 09:09:10;;;;;;;;;;;12.50;99.90;;;;;;8357359;28;19917;-65
2021/10/04 09:13:12;;;;;;;;;;;12.50;99.90;;;;;;8357449;28;20015;-65
2021/10/04 09:17:13;;;;;;;;;;;12.60;99.90;;;;;;8363030;28;19913;-65
2021/10/04 09:21:15;;;;;;;;;;;12.70;99.90;;;;;;8358004;28;19916;-65
2021/10/04 09:25:16;;;;;;;;;;;13.10;99.90;;;;;;8360789;28;19999;-65
2021/10/04 09:29:18;;;;;;;;;;;13.00;99.90;;;;;;8363910;28;19919;-65
2021/10/04 09:33:19;;;;;;;;;;;13.10;99.90;;;;;;8362505;28;20500;-65
2021/10/04 09:37:24;;;;;;;;;;;13.30;99.90;;;;;;8363771;28;19912;-65
2021/10/04 09:41:25;;;;;;;;;;;13.60;99.90;;;;;;8362623;28;20367;-65
2021/10/04 09:45:26;;;;;;;;;;;13.60;99.90;;;;;;8363476;28;19995;-64
2021/10/04 09:49:26;;;;;;;;;;;13.40;99.90;;;;;;8382900;28;19912;-65
2021/10/04 09:53:27;;;;;;;;;;;13.00;99.90;;;;;;8395302;28;20195;-65
2021/10/04 09:57:27;;;;;;;;;;;13.00;99.90;;;;;;8376185;28;19917;-65
2021/10/04 10:01:28;;;;;;;;;;;13.30;99.90;;;;;;8376031;28;19924;-65
2021/10/04 10:05:30;;;;;;;;;;;13.80;99.90;;;;;;8395770;28;19912;-65
2021/10/04 10:09:33;;;;;;;;;;;14.20;99.90;;;;;;8393083;28;19923;-65
2021/10/04 10:13:35;;;;;;;;;;;14.60;99.90;;;;;;8362760;28;19912;-65
2021/10/04 10:17:35;;;;;;;;;;;14.80;99.90;;;;;;8361689;28;19912;-65
2021/10/04 10:21:36;;;;;;;;;;;15.00;99.90;;;;;;8362056;28;20295;-65
2021/10/04 10:25:39;;;;;;;;;;;15.00;99.90;;;;;;8363066;28;19987;-65
2021/10/04 10:29:40;;;;;;;;;;;14.80;99.90;;;;;;8360806;28;20410;-65
2021/10/04 10:33:47;;;;;;;;;;;14.70;99.90;;;;;;8361023;28;19909;-65
2021/10/04 10:37:50;;;;;;;;;;;14.60;99.90;;;;;;8361054;28;19949;-65
2021/10/04 10:42:08;;;;;;;;;;;14.40;99.90;;;;;;8360355;28;19912;-65
2021/10/04 10:46:09;;;;;;;;;;;14.40;99.90;;;;;;8361361;28;19909;-65
2021/10/04 10:50:13;;;;;;;;;;;14.10;99.90;;;;;;8361240;28;19913;-65
2021/10/04 10:54:32;;;;;;;;;;;14.20;99.90;;;;;;8361319;28;19971;-65
2021/10/04 10:58:34;;;;;;;;;;;14.20;99.90;;;;;;8361437;28;19916;-65
2021/10/04 11:02:54;;;;;;;;;;;14.00;99.90;;;;;;8361075;28;20437;-65
2021/10/04 11:06:54;;;;;;;;;;;14.00;99.90;;;;;;8360734;28;20379;-65
2021/10/04 11:10:58;;;;;;;;;;;14.10;99.90;;;;;;8359112;28;19916;-65
2021/10/04 11:14:58;;;;;;;;;;;14.00;99.90;;;;;;8360411;28;19936;-65
2021/10/04 11:18:59;;;;;;;;;;;13.90;99.90;;;;;;8358910;28;20398;-65
2021/10/04 11:23:05;;;;;;;;;;;14.00;99.90;;;;;;8360681;28;20375;-65
2021/10/04 11:27:06;;;;;;;;;;;14.10;99.90;;;;;;8360410;28;19963;-65
2021/10/04 11:31:07;;;;;;;;;;;14.30;99.90;;;;;;8359868;28;20007;-65
2021/10/04 11:35:14;;;;;;;;;;;14.50;99.90;;;;;;8360154;28;19959;-65
2021/10/04 11:39:18;;;;;;;;;;;14.70;99.90;;;;;;8360617;28;19909;-65
2021/10/04 11:43:19;;;;;;;;;;;14.80;99.90;;;;;;8360093;28;19920;-65
2021/10/04 11:47:20;;;;;;;;;;;14.80;99.90;;;;;;8361616;28;19962;-65
2021/10/04 11:51:27;;;;;;;;;;;14.90;99.90;;;;;;8388190;28;19913;-65
2021/10/04 11:55:28;;;;;;;;;;;14.70;99.90;;;;;;8385509;28;19923;-64
2021/10/04 11:59:28;;;;;;;;;;;14.50;99.90;;;;;;8384032;28;20335;-64
2021/10/04 12:03:31;;;;;;;;;;;14.40;99.90;;;;;;8358601;28;19913;-64
2021/10/04 12:07:31;;;;;;;;;;;14.50;99.90;;;;;;8359294;28;19909;-64
2021/10/04 12:11:32;;;;;;;;;;;14.40;99.90;;;;;;8359006;28;19993;-64
2021/10/04 12:15:32;;;;;;;;;;;14.30;99.90;;;;;;8358956;28;19940;-64
2021/10/04 12:19:34;;;;;;;;;;;14.50;99.90;;;;;;8357781;28;19913;-64
2021/10/04 12:23:34;;;;;;;;;;;14.70;99.90;;;;;;8358505;28;19920;-65
2021/10/04 12:27:35;;;;;;;;;;;15.20;99.90;;;;;;8378118;28;19955;-64
2021/10/04 12:31:36;;;;;;;;;;;15.80;99.90;;;;;;8358326;28;20008;-65
2021/10/04 12:35:37;;;;;;;;;;;16.40;99.90;;;;;;8358705;28;20433;-65
2021/10/04 12:39:38;;;;;;;;;;;16.30;99.90;;;;;;8358785;28;19921;-65
2021/10/04 12:43:39;;;;;;;;;;;16.20;99.90;;;;;;8359184;28;19908;-65
2021/10/04 12:47:52;;;;;;;;;;;17.00;99.90;;;;;;8358692;28;20355;-65
2021/10/04 12:51:53;;;;;;;;;;;18.30;99.90;;;;;;8358817;28;19974;-65
2021/10/04 12:56:04;;;;;;;;;;;18.50;99.90;;;;;;8358217;28;19998;-65
2021/10/04 13:00:07;;;;;;;;;;;18.80;99.90;;;;;;8364400;28;19913;-65
2021/10/04 13:04:08;;;;;;;;;;;19.00;99.90;;;;;;8365242;28;19920;-64
2021/10/04 13:08:08;;;;;;;;;;;19.00;99.90;;;;;;8363847;28;20272;-65
2021/10/04 13:12:09;;;;;;;;;;;19.10;99.90;;;;;;8362895;28;19913;-65
2021/10/04 13:16:10;;;;;;;;;;;18.60;99.90;;;;;;8364580;28;19920;-64
2021/10/04 13:20:11;;;;;;;;;;;18.00;99.90;;;;;;8390460;28;20398;-65
2021/10/04 13:24:12;;;;;;;;;;;17.60;99.90;;;;;;8397795;28;19923;-65
2021/10/04 13:28:13;;;;;;;;;;;17.60;99.90;;;;;;8397505;28;19958;-65
2021/10/04 13:32:14;;;;;;;;;;;17.50;99.90;;;;;;8396776;28;19956;-65
2021/10/04 13:36:15;;;;;;;;;;;17.50;99.90;;;;;;8395608;28;20290;-65
2021/10/04 13:40:15;;;;;;;;;;;17.30;99.90;;;;;;8371617;28;19920;-65
2021/10/04 13:44:16;;;;;;;;;;;17.10;99.90;;;;;;8396835;28;19915;-65
2021/10/04 13:48:16;;;;;;;;;;;16.80;99.90;;;;;;8396612;28;19916;-65
2021/10/04 13:52:17;;;;;;;;;;;16.80;99.90;;;;;;8396652;28;19916;-65
2021/10/04 13:56:18;;;;;;;;;;;17.00;99.90;;;;;;8396150;28;20286;-65
2021/10/04 14:00:18;;;;;;;;;;;17.40;99.90;;;;;;8395025;28;19912;-65
2021/10/04 14:04:19;;;;;;;;;;;17.40;99.90;;;;;;8396365;28;19930;-65
2021/10/04 14:08:19;;;;;;;;;;;17.40;99.90;;;;;;8394681;28;19909;-65
2021/10/04 14:12:20;;;;;;;;;;;17.60;99.90;;;;;;8395330;28;19912;-65
2021/10/04 14:16:21;;;;;;;;;;;18.20;99.90;;;;;;8395490;28;19909;-65
2021/10/04 14:20:22;;;;;;;;;;;18.80;99.90;;;;;;8394245;28;20374;-65
2021/10/04 14:24:22;;;;;;;;;;;19.00;99.90;;;;;;8384058;28;19970;-65
2021/10/04 14:28:23;;;;;;;;;;;19.00;99.90;;;;;;8378322;28;19916;-65
2021/10/04 14:32:24;;;;;;;;;;;18.50;99.90;;;;;;8377555;28;20005;-64
2021/10/04 14:36:24;;;;;;;;;;;17.90;99.90;;;;;;8370365;28;19920;-65
2021/10/04 14:40:25;;;;;;;;;;;17.80;99.90;;;;;;8367318;28;20375;-65
2021/10/04 14:44:25;;;;;;;;;;;17.90;99.90;;;;;;8361903;28;20312;-65
2021/10/04 14:48:26;;;;;;;;;;;18.20;99.90;;;;;;8364323;28;19955;-65
2021/10/04 14:52:27;;;;;;;;;;;17.90;99.90;;;;;;8377150;28;19952;-65
2021/10/04 14:56:27;;;;;;;;;;;17.30;99.90;;;;;;8375759;28;19987;-65
2021/10/04 15:00:28;;;;;;;;;;;16.70;99.90;;;;;;8379715;28;19917;-65
2021/10/04 15:04:28;;;;;;;;;;;16.20;99.90;;;;;;8373947;28;19909;-65
2021/10/04 15:08:29;;;;;;;;;;;16.10;99.90;;;;;;8376818;28;19920;-65
2021/10/04 15:12:29;;;;;;;;;;;16.10;99.90;;;;;;8388050;28;19931;-65
2021/10/04 15:16:30;;;;;;;;;;;16.10;99.90;;;;;;8373390;28;19943;-65
2021/10/04 15:20:30;;;;;;;;;;;16.00;99.90;;;;;;8369337;28;19913;-65
2021/10/04 15:24:31;;;;;;;;;;;15.90;99.90;;;;;;8360093;28;19935;-64
2021/10/04 15:28:31;;;;;;;;;;;15.60;99.90;;;;;;8360469;28;20438;-64
2021/10/04 15:32:32;;;;;;;;;;;15.30;99.90;;;;;;8361824;28;19928;-64
2021/10/04 15:36:32;;;;;;;;;;;14.90;99.90;;;;;;8361195;28;20067;-64
2021/10/04 15:40:33;;;;;;;;;;;14.80;99.90;;;;;;8384677;28;20256;-64
2021/10/04 15:44:34;;;;;;;;;;;14.70;99.90;;;;;;8372784;28;20375;-64
2021/10/04 15:48:35;;;;;;;;;;;14.50;99.90;;;;;;8381629;28;19916;-64
2021/10/04 15:52:36;;;;;;;;;;;14.60;99.90;;;;;;8384061;28;19916;-64
2021/10/04 15:56:36;;;;;;;;;;;14.70;99.90;;;;;;8387384;28;19997;-65
2021/10/04 16:00:37;;;;;;;;;;;14.80;99.90;;;;;;8370202;28;19975;-64
2021/10/04 16:04:38;;;;;;;;;;;14.90;99.90;;;;;;8359098;28;19909;-64
2021/10/04 16:08:42;;;;;;;;;;;14.90;99.90;;;;;;8374980;28;20003;-65
2021/10/04 16:12:43;;;;;;;;;;;14.90;99.90;;;;;;8374929;28;20003;-65
2021/10/04 16:16:44;;;;;;;;;;;14.70;99.90;;;;;;8389388;28;19912;-65
2021/10/04 16:20:46;;;;;;;;;;;14.70;99.90;;;;;;8374753;28;19917;-65
2021/10/04 16:24:46;;;;;;;;;;;14.70;99.90;;;;;;8357817;28;19912;-65
2021/10/04 16:28:48;;;;;;;;;;;14.70;99.90;;;;;;8357103;28;19923;-66
2021/10/04 16:32:50;;;;;;;;;;;14.90;99.90;;;;;;8380238;28;19916;-66
2021/10/04 16:36:51;;;;;;;;;;;14.80;99.90;;;;;;8385503;28;19917;-65
2021/10/04 16:40:52;;;;;;;;;;;14.60;99.90;;;;;;8379147;28;19971;-65
2021/10/04 16:44:53;;;;;;;;;;;14.30;99.90;;;;;;8380774;28;19923;-64
2021/10/04 16:48:54;;;;;;;;;;;14.00;99.90;;;;;;8369660;28;19917;-65
2021/10/04 16:52:57;;;;;;;;;;;13.60;99.90;;;;;;8365749;28;19912;-65
2021/10/04 16:56:57;;;;;;;;;;;13.50;99.90;;;;;;8363174;28;19917;-65
2021/10/04 17:00:58;;;;;;;;;;;13.30;99.90;;;;;;8368709;28;19924;-65
2021/10/04 17:04:59;;;;;;;;;;;13.30;99.90;;;;;;8377146;28;20260;-65
2021/10/04 17:08:59;;;;;;;;;;;13.20;99.90;;;;;;8372756;28;19912;-65
2021/10/04 17:13:03;;;;;;;;;;;13.10;99.90;;;;;;8368949;28;19935;-65
2021/10/04 17:17:03;;;;;;;;;;;13.10;99.90;;;;;;8362955;28;20018;-65
2021/10/04 17:21:04;;;;;;;;;;;13.10;99.90;;;;;;8359485;28;19916;-65
2021/10/04 17:25:05;;;;;;;;;;;13.00;99.90;;;;;;8359665;28;19956;-65
2021/10/04 17:29:07;;;;;;;;;;;13.10;99.90;;;;;;8359808;28;19913;-64
2021/10/04 17:33:08;;;;;;;;;;;12.90;99.90;;;;;;8369138;28;20004;-64
2021/10/04 17:37:08;;;;;;;;;;;12.80;99.90;;;;;;8362408;28;19924;-64
2021/10/04 17:41:09;;;;;;;;;;;12.60;99.90;;;;;;8380707;28;19917;-64
2021/10/04 17:45:10;;;;;;;;;;;12.50;99.90;;;;;;8359315;28;19917;-64
2021/10/04 17:49:11;;;;;;;;;;;12.40;99.90;;;;;;8356774;28;19920;-64
2021/10/04 17:53:12;;;;;;;;;;;12.30;99.90;;;;;;8357381;28;20477;-64
2021/10/04 17:57:12;;;;;;;;;;;12.20;99.90;;;;;;8355775;28;20005;-64
2021/10/04 18:01:13;;;;;;;;;;;12.20;99.90;;;;;;8358232;28;19920;-64
2021/10/04 18:05:14;;;;;;;;;;;12.30;99.90;;;;;;8366901;28;19921;-64
2021/10/04 18:09:14;;;;;;;;;;;12.20;99.90;;;;;;8360395;28;19978;-64
2021/10/04 18:13:15;;;;;;;;;;;12.10;99.90;;;;;;8365736;28;19916;-64
2021/10/04 18:17:16;;;;;;;;;;;12.10;99.90;;;;;;8360292;28;19916;-64
2021/10/04 18:21:17;;;;;;;;;;;12.00;99.90;;;;;;8357726;28;19921;-64
2021/10/04 18:25:17;;;;;;;;;;;12.00;99.90;;;;;;8368083;28;20328;-64
2021/10/04 18:29:18;;;;;;;;;;;12.00;99.90;;;;;;8384610;28;19920;-64
2021/10/04 18:33:18;;;;;;;;;;;12.00;99.90;;;;;;8358739;28;19917;-64
2021/10/04 18:37:22;;;;;;;;;;;12.00;99.90;;;;;;8358976;28;19913;-64
2021/10/04 18:41:22;;;;;;;;;;;12.10;99.90;;;;;;8375017;28;19916;-64
2021/10/04 18:45:23;;;;;;;;;;;12.00;99.90;;;;;;8365940;28;20282;-64
2021/10/04 18:49:24;;;;;;;;;;;11.90;99.90;;;;;;8357784;28;19938;-64
2021/10/04 18:53:26;;;;;;;;;;;11.90;99.90;;;;;;8356406;28;20368;-64
2021/10/04 18:57:26;;;;;;;;;;;11.90;99.90;;;;;;8356042;28;19913;-64
2021/10/04 19:01:29;;;;;;;;;;;12.00;99.90;;;;;;8357359;28;19916;-64
2021/10/04 19:05:30;;;;;;;;;;;12.00;99.90;;;;;;8358205;28;19916;-65
2021/10/04 19:09:32;;;;;;;;;;;11.90;99.90;;;;;;8375351;28;19939;-64
2021/10/04 19:13:32;;;;;;;;;;;11.90;99.90;;;;;;8362464;28;20360;-64
2021/10/04 19:17:33;;;;;;;;;;;11.90;99.90;;;;;;8354340;28;19913;-65
2021/10/04 19:21:33;;;;;;;;;;;11.90;99.90;;;;;;8364661;28;19964;-64
2021/10/04 19:25:34;;;;;;;;;;;11.90;99.90;;;;;;8365776;28;20203;-64
2021/10/04 19:29:36;;;;;;;;;;;11.90;99.90;;;;;;8371777;28;19916;-64
2021/10/04 19:33:36;;;;;;;;;;;11.90;99.90;;;;;;8373083;28;19913;-65
2021/10/04 19:37:37;;;;;;;;;;;12.00;99.90;;;;;;8360935;28;19979;-64
2021/10/04 19:41:38;;;;;;;;;;;12.00;99.90;;;;;;8360429;28;19920;-65
2021/10/04 19:45:40;;;;;;;;;;;12.10;99.90;;;;;;8365778;28;19921;-65
2021/10/04 19:49:41;;;;;;;;;;;12.10;99.90;;;;;;8366835;28;20352;-65
2021/10/04 19:53:53;;;;;;;;;;;12.00;99.90;;;;;;8359744;28;19967;-65
2021/10/04 19:57:53;;;;;;;;;;;12.00;99.90;;;;;;8373843;28;19962;-64
2021/10/04 20:01:54;;;;;;;;;;;11.90;99.90;;;;;;8367625;28;20062;-65
2021/10/04 20:05:54;;;;;;;;;;;11.90;99.90;;;;;;8382807;28;19917;-65
2021/10/04 20:09:55;;;;;;;;;;;11.90;99.90;;;;;;8357540;28;19912;-65
2021/10/04 20:13:55;;;;;;;;;;;11.90;99.90;;;;;;8363678;28;19909;-65
2021/10/04 20:17:56;;;;;;;;;;;12.00;99.90;;;;;;8380522;28;19967;-64
2021/10/04 20:21:56;;;;;;;;;;;11.90;99.90;;;;;;8358798;28;19932;-64
2021/10/04 20:25:59;;;;;;;;;;;11.80;99.90;;;;;;8366591;28;19917;-64
2021/10/04 20:30:00;;;;;;;;;;;11.90;99.90;;;;;;8390406;28;19912;-65
2021/10/04 20:34:02;;;;;;;;;;;11.80;99.90;;;;;;8362220;28;19915;-64
2021/10/04 20:38:03;;;;;;;;;;;11.90;99.90;;;;;;8372421;28;19913;-64
2021/10/04 20:42:04;;;;;;;;;;;11.80;99.90;;;;;;8374277;28;19930;-64
2021/10/04 20:46:04;;;;;;;;;;;11.80;99.90;;;;;;8363156;28;19913;-64
2021/10/04 20:50:06;;;;;;;;;;;11.80;99.90;;;;;;8357633;28;19920;-64
2021/10/04 20:54:08;;;;;;;;;;;11.80;99.90;;;;;;8357241;28;19909;-64
2021/10/04 20:58:09;;;;;;;;;;;11.70;99.90;;;;;;8358379;28;20434;-64
2021/10/04 21:02:09;;;;;;;;;;;11.80;99.90;;;;;;8358368;28;19920;-64
2021/10/04 21:06:14;;;;;;;;;;;11.60;99.90;;;;;;8357627;28;20316;-64
2021/10/04 21:10:14;;;;;;;;;;;11.60;99.90;;;;;;8357024;28;19912;-64
2021/10/04 21:14:15;;;;;;;;;;;11.60;99.90;;;;;;8357991;28;19909;-64
2021/10/04 21:18:16;;;;;;;;;;;11.70;99.90;;;;;;8368266;28;19909;-64
2021/10/04 21:22:18;;;;;;;;;;;11.60;99.90;;;;;;8397168;28;19917;-64
2021/10/04 21:26:18;;;;;;;;;;;11.60;99.90;;;;;;8396926;28;19930;-64
2021/10/04 21:30:19;;;;;;;;;;;11.60;99.90;;;;;;8396405;28;19920;-64
2021/10/04 21:34:19;;;;;;;;;;;11.70;99.90;;;;;;8396877;28;19917;-64
2021/10/04 21:38:20;;;;;;;;;;;11.60;99.90;;;;;;8396840;28;19921;-64
2021/10/04 21:42:20;;;;;;;;;;;11.60;99.90;;;;;;8395431;28;19970;-64
2021/10/04 21:46:21;;;;;;;;;;;11.60;99.90;;;;;;8394999;28;20003;-64
2021/10/04 21:50:21;;;;;;;;;;;11.70;99.90;;;;;;8395205;28;19970;-63
2021/10/04 21:54:22;;;;;;;;;;;11.70;99.90;;;;;;8396033;28;19923;-63
2021/10/04 21:58:22;;;;;;;;;;;11.70;99.90;;;;;;8396035;28;19909;-63
2021/10/04 22:10:59;;;;;;;;;;;11.50;99.90;;;;;;8393182;28;20294;-63
2021/10/04 22:15:00;;;;;;;;;;;11.60;99.90;;;;;;8393495;28;19913;-63
2021/10/04 22:19:00;;;;;;;;;;;11.50;99.90;;;;;;8395685;28;20374;-64
2021/10/04 22:23:01;;;;;;;;;;;11.50;99.90;;;;;;8395656;28;19974;-63
2021/10/04 22:27:01;;;;;;;;;;;11.40;99.90;;;;;;8394100;28;19916;-64
2021/10/04 22:31:02;;;;;;;;;;;11.40;99.90;;;;;;8395306;28;19958;-63
2021/10/04 22:35:03;;;;;;;;;;;11.50;99.90;;;;;;8394027;28;19935;-63
2021/10/04 22:39:04;;;;;;;;;;;11.50;99.90;;;;;;8395324;28;19998;-64
2021/10/04 22:43:05;;;;;;;;;;;11.50;99.90;;;;;;8395078;28;19920;-63
2021/10/04 22:47:05;;;;;;;;;;;11.50;99.90;;;;;;8394477;28;19935;-64
2021/10/04 22:51:06;;;;;;;;;;;11.50;99.90;;;;;;8394545;28;20264;-63
2021/10/04 22:55:06;;;;;;;;;;;11.40;99.90;;;;;;8392635;28;20501;-63
2021/10/04 22:59:07;;;;;;;;;;;11.50;99.90;;;;;;8393141;28;19908;-64
2021/10/04 23:03:07;;;;;;;;;;;11.40;99.90;;;;;;8394157;28;20371;-63
2021/10/04 23:07:08;;;;;;;;;;;11.50;99.90;;;;;;8393695;28;20049;-63
2021/10/04 23:11:08;;;;;;;;;;;11.40;99.90;;;;;;8393829;28;20458;-63
2021/10/04 23:15:09;;;;;;;;;;;11.40;99.90;;;;;;8392445;28;20027;-63
2021/10/04 23:19:09;;;;;;;;;;;11.40;99.90;;;;;;8392145;28;20015;-63
2021/10/04 23:23:09;;;;;;;;;;;11.40;99.90;;;;;;8393363;28;19923;-64
2021/10/04 23:27:10;;;;;;;;;;;11.40;99.90;;;;;;8391904;28;19909;-63
2021/10/04 23:31:10;;;;;;;;;;;11.40;99.90;;;;;;8393008;28;19935;-63